sensor_id;sensor_type;location;lat;lon;timestamp;P1;durP1;ratioP1;P2;durP2;ratioP2
10715;SDS011;5409;42.620;23.316;2022-08-21T00:02:13;11.25;;;7.78;;
10715;SDS011;5409;42.620;23.316;2022-08-21T00:04:40;12.27;;;6.38;;
10715;SDS011;5409;42.620;23.316;2022-08-21T00:07:06;14.75;;;6.03;;
10715;SDS011;5409;42.620;23.316;2022-08-21T00:09:32;9.45;;;6.10;;
10715;SDS011;5409;42.620;23.316;2022-08-21T00:12:00;9.27;;;5.40;;
10715;SDS011;5409;42.620;23.316;2022-08-21T00:14:27;11.45;;;5.68;;
10715;SDS011;5409;42.620;23.316;2022-08-21T00:16:53;11.88;;;6.30;;
10715;SDS011;5409;42.620;23.316;2022-08-21T00:19:20;10.80;;;6.90;;
10715;SDS011;5409;42.620;23.316;2022-08-21T00:21:49;17.35;;;8.27;;
10715;SDS011;5409;42.620;23.316;2022-08-21T00:24:16;12.63;;;7.35;;
10715;SDS011;5409;42.620;23.316;2022-08-21T00:26:43;11.65;;;6.18;;
10715;SDS011;5409;42.620;23.316;2022-08-21T00:29:11;14.95;;;8.18;;
10715;SDS011;5409;42.620;23.316;2022-08-21T00:31:38;16.35;;;8.65;;
10715;SDS011;5409;42.620;23.316;2022-08-21T00:34:04;14.90;;;8.93;;
10715;SDS011;5409;42.620;23.316;2022-08-21T00:36:31;10.70;;;6.78;;
10715;SDS011;5409;42.620;23.316;2022-08-21T00:38:58;11.20;;;6.35;;
10715;SDS011;5409;42.620;23.316;2022-08-21T00:41:24;9.05;;;5.35;;
10715;SDS011;5409;42.620;23.316;2022-08-21T00:43:52;9.95;;;5.18;;
10715;SDS011;5409;42.620;23.316;2022-08-21T00:46:19;9.57;;;4.85;;
10715;SDS011;5409;42.620;23.316;2022-08-21T00:48:46;9.60;;;4.90;;
10715;SDS011;5409;42.620;23.316;2022-08-21T00:51:14;11.80;;;4.50;;
10715;SDS011;5409;42.620;23.316;2022-08-21T00:53:43;9.85;;;5.20;;
10715;SDS011;5409;42.620;23.316;2022-08-21T00:56:11;8.15;;;5.03;;
10715;SDS011;5409;42.620;23.316;2022-08-21T00:58:39;10.55;;;5.00;;
10715;SDS011;5409;42.620;23.316;2022-08-21T01:01:06;9.70;;;4.82;;
10715;SDS011;5409;42.620;23.316;2022-08-21T01:03:34;8.57;;;4.70;;
10715;SDS011;5409;42.620;23.316;2022-08-21T01:06:01;13.13;;;4.78;;
10715;SDS011;5409;42.620;23.316;2022-08-21T01:08:29;7.35;;;4.30;;
10715;SDS011;5409;42.620;23.316;2022-08-21T01:10:55;7.75;;;4.75;;
10715;SDS011;5409;42.620;23.316;2022-08-21T01:13:23;11.50;;;4.50;;
10715;SDS011;5409;42.620;23.316;2022-08-21T01:15:54;13.27;;;4.10;;
10715;SDS011;5409;42.620;23.316;2022-08-21T01:18:21;8.00;;;3.88;;
10715;SDS011;5409;42.620;23.316;2022-08-21T01:21:03;12.77;;;5.15;;
10715;SDS011;5409;42.620;23.316;2022-08-21T01:23:29;6.72;;;4.10;;
10715;SDS011;5409;42.620;23.316;2022-08-21T01:25:56;10.10;;;4.20;;
10715;SDS011;5409;42.620;23.316;2022-08-21T01:28:22;8.70;;;3.83;;
10715;SDS011;5409;42.620;23.316;2022-08-21T01:30:50;9.38;;;3.97;;
10715;SDS011;5409;42.620;23.316;2022-08-21T01:33:17;7.93;;;3.95;;
10715;SDS011;5409;42.620;23.316;2022-08-21T01:35:44;9.80;;;4.60;;
10715;SDS011;5409;42.620;23.316;2022-08-21T01:38:12;10.43;;;4.10;;
10715;SDS011;5409;42.620;23.316;2022-08-21T01:40:38;9.70;;;3.97;;
10715;SDS011;5409;42.620;23.316;2022-08-21T01:43:05;9.38;;;4.07;;
10715;SDS011;5409;42.620;23.316;2022-08-21T01:45:31;12.85;;;3.78;;
10715;SDS011;5409;42.620;23.316;2022-08-21T01:47:58;7.88;;;3.45;;
10715;SDS011;5409;42.620;23.316;2022-08-21T01:50:24;6.72;;;3.50;;
10715;SDS011;5409;42.620;23.316;2022-08-21T01:52:51;5.47;;;3.58;;
10715;SDS011;5409;42.620;23.316;2022-08-21T01:55:19;7.13;;;3.60;;
10715;SDS011;5409;42.620;23.316;2022-08-21T01:57:46;9.90;;;3.70;;
10715;SDS011;5409;42.620;23.316;2022-08-21T02:00:14;7.90;;;4.10;;
10715;SDS011;5409;42.620;23.316;2022-08-21T02:02:41;10.95;;;3.80;;
10715;SDS011;5409;42.620;23.316;2022-08-21T02:05:08;6.13;;;3.88;;
10715;SDS011;5409;42.620;23.316;2022-08-21T02:07:36;12.23;;;4.25;;
10715;SDS011;5409;42.620;23.316;2022-08-21T02:10:02;15.52;;;4.28;;
10715;SDS011;5409;42.620;23.316;2022-08-21T02:12:30;9.18;;;3.65;;
10715;SDS011;5409;42.620;23.316;2022-08-21T02:14:57;6.70;;;3.55;;
10715;SDS011;5409;42.620;23.316;2022-08-21T02:17:23;9.77;;;3.63;;
10715;SDS011;5409;42.620;23.316;2022-08-21T02:19:50;7.20;;;3.58;;
10715;SDS011;5409;42.620;23.316;2022-08-21T02:22:16;5.15;;;3.33;;
10715;SDS011;5409;42.620;23.316;2022-08-21T02:24:43;12.35;;;3.90;;
10715;SDS011;5409;42.620;23.316;2022-08-21T02:27:09;9.13;;;3.80;;
10715;SDS011;5409;42.620;23.316;2022-08-21T02:29:37;6.72;;;3.70;;
10715;SDS011;5409;42.620;23.316;2022-08-21T02:32:04;8.55;;;3.50;;
10715;SDS011;5409;42.620;23.316;2022-08-21T02:34:30;7.95;;;3.45;;
10715;SDS011;5409;42.620;23.316;2022-08-21T02:36:56;5.28;;;3.47;;
10715;SDS011;5409;42.620;23.316;2022-08-21T02:39:23;10.43;;;3.55;;
10715;SDS011;5409;42.620;23.316;2022-08-21T02:41:49;9.80;;;3.80;;
10715;SDS011;5409;42.620;23.316;2022-08-21T02:44:16;8.50;;;3.78;;
10715;SDS011;5409;42.620;23.316;2022-08-21T02:46:44;9.30;;;4.60;;
10715;SDS011;5409;42.620;23.316;2022-08-21T02:49:10;10.30;;;4.00;;
10715;SDS011;5409;42.620;23.316;2022-08-21T02:51:37;15.13;;;4.10;;
10715;SDS011;5409;42.620;23.316;2022-08-21T02:54:03;6.57;;;3.85;;
10715;SDS011;5409;42.620;23.316;2022-08-21T02:56:30;12.48;;;4.57;;
10715;SDS011;5409;42.620;23.316;2022-08-21T02:58:56;7.03;;;3.50;;
10715;SDS011;5409;42.620;23.316;2022-08-21T03:01:22;9.60;;;3.60;;
10715;SDS011;5409;42.620;23.316;2022-08-21T03:03:51;7.93;;;4.07;;
10715;SDS011;5409;42.620;23.316;2022-08-21T03:06:19;11.55;;;4.07;;
10715;SDS011;5409;42.620;23.316;2022-08-21T03:08:46;8.45;;;4.10;;
10715;SDS011;5409;42.620;23.316;2022-08-21T03:11:13;7.97;;;4.35;;
10715;SDS011;5409;42.620;23.316;2022-08-21T03:13:40;6.20;;;3.70;;
10715;SDS011;5409;42.620;23.316;2022-08-21T03:16:06;11.40;;;4.38;;
10715;SDS011;5409;42.620;23.316;2022-08-21T03:18:33;14.80;;;4.90;;
10715;SDS011;5409;42.620;23.316;2022-08-21T03:21:01;6.32;;;3.90;;
10715;SDS011;5409;42.620;23.316;2022-08-21T03:23:28;7.68;;;3.78;;
10715;SDS011;5409;42.620;23.316;2022-08-21T03:25:55;9.82;;;4.10;;
10715;SDS011;5409;42.620;23.316;2022-08-21T03:28:22;9.90;;;4.75;;
10715;SDS011;5409;42.620;23.316;2022-08-21T03:30:49;7.07;;;4.20;;
10715;SDS011;5409;42.620;23.316;2022-08-21T03:33:15;9.73;;;4.25;;
10715;SDS011;5409;42.620;23.316;2022-08-21T03:35:42;11.30;;;4.28;;
10715;SDS011;5409;42.620;23.316;2022-08-21T03:38:11;6.70;;;3.85;;
10715;SDS011;5409;42.620;23.316;2022-08-21T03:40:38;9.75;;;4.00;;
10715;SDS011;5409;42.620;23.316;2022-08-21T03:43:05;11.90;;;4.45;;
10715;SDS011;5409;42.620;23.316;2022-08-21T03:45:34;6.65;;;4.20;;
10715;SDS011;5409;42.620;23.316;2022-08-21T03:48:01;8.13;;;4.40;;
10715;SDS011;5409;42.620;23.316;2022-08-21T03:50:28;11.20;;;4.78;;
10715;SDS011;5409;42.620;23.316;2022-08-21T03:52:55;11.85;;;4.18;;
10715;SDS011;5409;42.620;23.316;2022-08-21T03:55:24;8.35;;;4.78;;
10715;SDS011;5409;42.620;23.316;2022-08-21T03:57:50;6.50;;;4.30;;
10715;SDS011;5409;42.620;23.316;2022-08-21T04:00:18;13.95;;;4.65;;
10715;SDS011;5409;42.620;23.316;2022-08-21T04:02:45;10.90;;;4.13;;
10715;SDS011;5409;42.620;23.316;2022-08-21T04:05:13;10.02;;;4.30;;
10715;SDS011;5409;42.620;23.316;2022-08-21T04:07:51;8.23;;;4.55;;
10715;SDS011;5409;42.620;23.316;2022-08-21T04:10:18;16.05;;;4.72;;
10715;SDS011;5409;42.620;23.316;2022-08-21T04:12:46;8.70;;;4.68;;
10715;SDS011;5409;42.620;23.316;2022-08-21T04:15:12;11.07;;;5.07;;
10715;SDS011;5409;42.620;23.316;2022-08-21T04:17:39;10.10;;;4.30;;
10715;SDS011;5409;42.620;23.316;2022-08-21T04:20:06;7.53;;;4.32;;
10715;SDS011;5409;42.620;23.316;2022-08-21T04:22:33;10.10;;;5.38;;
10715;SDS011;5409;42.620;23.316;2022-08-21T04:24:59;10.15;;;4.50;;
10715;SDS011;5409;42.620;23.316;2022-08-21T04:27:26;11.35;;;4.25;;
10715;SDS011;5409;42.620;23.316;2022-08-21T04:29:53;8.02;;;4.32;;
10715;SDS011;5409;42.620;23.316;2022-08-21T04:32:21;12.10;;;4.28;;
10715;SDS011;5409;42.620;23.316;2022-08-21T04:34:48;10.73;;;4.20;;
10715;SDS011;5409;42.620;23.316;2022-08-21T04:37:14;11.63;;;4.75;;
10715;SDS011;5409;42.620;23.316;2022-08-21T04:39:41;11.15;;;4.53;;
10715;SDS011;5409;42.620;23.316;2022-08-21T04:42:08;10.43;;;4.22;;
10715;SDS011;5409;42.620;23.316;2022-08-21T04:44:34;10.93;;;3.60;;
10715;SDS011;5409;42.620;23.316;2022-08-21T04:47:02;7.60;;;4.00;;
10715;SDS011;5409;42.620;23.316;2022-08-21T04:49:29;8.07;;;4.28;;
10715;SDS011;5409;42.620;23.316;2022-08-21T04:51:56;11.55;;;4.75;;
10715;SDS011;5409;42.620;23.316;2022-08-21T04:54:22;8.32;;;4.03;;
10715;SDS011;5409;42.620;23.316;2022-08-21T04:56:49;12.25;;;3.95;;
10715;SDS011;5409;42.620;23.316;2022-08-21T04:59:19;11.88;;;4.30;;
10715;SDS011;5409;42.620;23.316;2022-08-21T05:01:47;7.70;;;3.67;;
10715;SDS011;5409;42.620;23.316;2022-08-21T05:04:16;8.40;;;4.57;;
10715;SDS011;5409;42.620;23.316;2022-08-21T05:06:43;9.88;;;4.28;;
10715;SDS011;5409;42.620;23.316;2022-08-21T05:09:12;11.13;;;4.68;;
10715;SDS011;5409;42.620;23.316;2022-08-21T05:11:39;9.18;;;4.00;;
10715;SDS011;5409;42.620;23.316;2022-08-21T05:14:06;11.15;;;4.72;;
10715;SDS011;5409;42.620;23.316;2022-08-21T05:16:32;9.40;;;4.72;;
10715;SDS011;5409;42.620;23.316;2022-08-21T05:18:59;7.20;;;4.10;;
10715;SDS011;5409;42.620;23.316;2022-08-21T05:21:26;12.70;;;4.40;;
10715;SDS011;5409;42.620;23.316;2022-08-21T05:23:53;14.00;;;4.25;;
10715;SDS011;5409;42.620;23.316;2022-08-21T05:26:19;7.80;;;4.30;;
10715;SDS011;5409;42.620;23.316;2022-08-21T05:28:46;8.40;;;4.10;;
10715;SDS011;5409;42.620;23.316;2022-08-21T05:31:12;8.98;;;4.38;;
10715;SDS011;5409;42.620;23.316;2022-08-21T05:33:39;8.88;;;4.53;;
10715;SDS011;5409;42.620;23.316;2022-08-21T05:36:05;10.38;;;4.40;;
10715;SDS011;5409;42.620;23.316;2022-08-21T05:38:33;9.43;;;6.63;;
10715;SDS011;5409;42.620;23.316;2022-08-21T05:41:00;10.82;;;6.70;;
10715;SDS011;5409;42.620;23.316;2022-08-21T05:43:26;12.85;;;6.35;;
10715;SDS011;5409;42.620;23.316;2022-08-21T05:45:53;11.57;;;6.85;;
10715;SDS011;5409;42.620;23.316;2022-08-21T05:48:20;8.00;;;5.85;;
10715;SDS011;5409;42.620;23.316;2022-08-21T05:50:48;10.60;;;6.40;;
10715;SDS011;5409;42.620;23.316;2022-08-21T05:53:15;11.35;;;5.07;;
10715;SDS011;5409;42.620;23.316;2022-08-21T05:55:43;9.48;;;4.93;;
10715;SDS011;5409;42.620;23.316;2022-08-21T05:58:10;8.52;;;5.35;;
10715;SDS011;5409;42.620;23.316;2022-08-21T06:00:36;7.90;;;5.65;;
10715;SDS011;5409;42.620;23.316;2022-08-21T06:03:03;7.80;;;5.07;;
10715;SDS011;5409;42.620;23.316;2022-08-21T06:05:29;9.60;;;5.50;;
10715;SDS011;5409;42.620;23.316;2022-08-21T06:07:56;10.32;;;5.90;;
10715;SDS011;5409;42.620;23.316;2022-08-21T06:10:22;8.23;;;5.63;;
10715;SDS011;5409;42.620;23.316;2022-08-21T06:12:53;10.82;;;5.78;;
10715;SDS011;5409;42.620;23.316;2022-08-21T06:15:20;7.05;;;5.30;;
10715;SDS011;5409;42.620;23.316;2022-08-21T06:17:46;6.78;;;5.10;;
10715;SDS011;5409;42.620;23.316;2022-08-21T06:20:13;9.73;;;5.25;;
10715;SDS011;5409;42.620;23.316;2022-08-21T06:22:39;10.15;;;6.47;;
10715;SDS011;5409;42.620;23.316;2022-08-21T06:25:06;9.10;;;6.10;;
10715;SDS011;5409;42.620;23.316;2022-08-21T06:27:34;9.93;;;6.75;;
10715;SDS011;5409;42.620;23.316;2022-08-21T06:30:02;9.95;;;6.38;;
10715;SDS011;5409;42.620;23.316;2022-08-21T06:32:28;9.73;;;5.72;;
10715;SDS011;5409;42.620;23.316;2022-08-21T06:34:55;10.88;;;5.82;;
10715;SDS011;5409;42.620;23.316;2022-08-21T06:37:21;7.07;;;5.47;;
10715;SDS011;5409;42.620;23.316;2022-08-21T06:39:47;14.13;;;5.72;;
10715;SDS011;5409;42.620;23.316;2022-08-21T06:42:14;8.85;;;5.80;;
10715;SDS011;5409;42.620;23.316;2022-08-21T06:44:41;9.13;;;6.22;;
10715;SDS011;5409;42.620;23.316;2022-08-21T06:47:09;11.30;;;5.75;;
10715;SDS011;5409;42.620;23.316;2022-08-21T06:49:36;9.80;;;6.03;;
10715;SDS011;5409;42.620;23.316;2022-08-21T06:52:02;9.20;;;6.10;;
10715;SDS011;5409;42.620;23.316;2022-08-21T06:54:29;8.02;;;6.03;;
10715;SDS011;5409;42.620;23.316;2022-08-21T06:56:56;11.77;;;6.80;;
10715;SDS011;5409;42.620;23.316;2022-08-21T06:59:23;10.38;;;5.60;;
10715;SDS011;5409;42.620;23.316;2022-08-21T07:01:49;12.13;;;5.78;;
10715;SDS011;5409;42.620;23.316;2022-08-21T07:04:17;7.82;;;5.45;;
10715;SDS011;5409;42.620;23.316;2022-08-21T07:06:44;9.40;;;5.57;;
10715;SDS011;5409;42.620;23.316;2022-08-21T07:09:11;9.77;;;5.68;;
10715;SDS011;5409;42.620;23.316;2022-08-21T07:11:37;9.63;;;5.50;;
10715;SDS011;5409;42.620;23.316;2022-08-21T07:14:04;8.73;;;5.75;;
10715;SDS011;5409;42.620;23.316;2022-08-21T07:16:30;8.90;;;5.80;;
10715;SDS011;5409;42.620;23.316;2022-08-21T07:18:57;12.25;;;5.68;;
10715;SDS011;5409;42.620;23.316;2022-08-21T07:21:25;8.27;;;6.25;;
10715;SDS011;5409;42.620;23.316;2022-08-21T07:23:51;11.40;;;6.13;;
10715;SDS011;5409;42.620;23.316;2022-08-21T07:26:18;7.78;;;6.68;;
10715;SDS011;5409;42.620;23.316;2022-08-21T07:28:45;12.63;;;6.75;;
10715;SDS011;5409;42.620;23.316;2022-08-21T07:31:13;8.73;;;6.55;;
10715;SDS011;5409;42.620;23.316;2022-08-21T07:33:39;8.38;;;5.97;;
10715;SDS011;5409;42.620;23.316;2022-08-21T07:36:06;12.10;;;6.82;;
10715;SDS011;5409;42.620;23.316;2022-08-21T07:38:34;11.68;;;6.55;;
10715;SDS011;5409;42.620;23.316;2022-08-21T07:41:01;8.95;;;6.20;;
10715;SDS011;5409;42.620;23.316;2022-08-21T07:43:29;8.50;;;5.95;;
10715;SDS011;5409;42.620;23.316;2022-08-21T07:45:55;11.00;;;6.18;;
10715;SDS011;5409;42.620;23.316;2022-08-21T07:48:28;11.15;;;6.02;;
10715;SDS011;5409;42.620;23.316;2022-08-21T07:50:55;6.53;;;5.80;;
10715;SDS011;5409;42.620;23.316;2022-08-21T07:53:21;10.52;;;5.65;;
10715;SDS011;5409;42.620;23.316;2022-08-21T07:55:49;6.85;;;5.95;;
10715;SDS011;5409;42.620;23.316;2022-08-21T07:58:16;8.27;;;5.70;;
10715;SDS011;5409;42.620;23.316;2022-08-21T08:00:42;8.55;;;6.25;;
10715;SDS011;5409;42.620;23.316;2022-08-21T08:03:08;9.73;;;5.28;;
10715;SDS011;5409;42.620;23.316;2022-08-21T08:05:35;8.75;;;5.63;;
10715;SDS011;5409;42.620;23.316;2022-08-21T08:08:02;6.50;;;5.60;;
10715;SDS011;5409;42.620;23.316;2022-08-21T08:10:29;9.52;;;5.65;;
10715;SDS011;5409;42.620;23.316;2022-08-21T08:12:57;13.30;;;5.97;;
10715;SDS011;5409;42.620;23.316;2022-08-21T08:15:24;9.57;;;5.13;;
10715;SDS011;5409;42.620;23.316;2022-08-21T08:17:51;10.07;;;5.38;;
10715;SDS011;5409;42.620;23.316;2022-08-21T08:20:20;9.60;;;5.05;;
10715;SDS011;5409;42.620;23.316;2022-08-21T08:22:48;9.02;;;4.57;;
10715;SDS011;5409;42.620;23.316;2022-08-21T08:25:15;7.68;;;4.78;;
10715;SDS011;5409;42.620;23.316;2022-08-21T08:27:42;8.32;;;4.90;;
10715;SDS011;5409;42.620;23.316;2022-08-21T08:30:11;9.02;;;4.75;;
10715;SDS011;5409;42.620;23.316;2022-08-21T08:32:38;7.15;;;4.68;;
10715;SDS011;5409;42.620;23.316;2022-08-21T08:35:05;7.75;;;4.45;;
10715;SDS011;5409;42.620;23.316;2022-08-21T08:37:32;8.43;;;4.35;;
10715;SDS011;5409;42.620;23.316;2022-08-21T08:39:59;5.18;;;4.30;;
10715;SDS011;5409;42.620;23.316;2022-08-21T08:42:27;9.15;;;5.32;;
10715;SDS011;5409;42.620;23.316;2022-08-21T08:44:55;7.55;;;4.20;;
10715;SDS011;5409;42.620;23.316;2022-08-21T08:47:24;7.82;;;3.97;;
10715;SDS011;5409;42.620;23.316;2022-08-21T08:49:53;8.50;;;4.20;;
10715;SDS011;5409;42.620;23.316;2022-08-21T08:52:22;9.85;;;4.32;;
10715;SDS011;5409;42.620;23.316;2022-08-21T08:54:51;9.20;;;5.03;;
10715;SDS011;5409;42.620;23.316;2022-08-21T08:57:22;7.85;;;4.38;;
10715;SDS011;5409;42.620;23.316;2022-08-21T08:59:50;8.50;;;4.50;;
10715;SDS011;5409;42.620;23.316;2022-08-21T09:02:18;7.03;;;5.32;;
10715;SDS011;5409;42.620;23.316;2022-08-21T09:04:47;10.07;;;5.18;;
10715;SDS011;5409;42.620;23.316;2022-08-21T09:07:16;12.02;;;4.72;;
10715;SDS011;5409;42.620;23.316;2022-08-21T09:09:48;7.43;;;4.25;;
10715;SDS011;5409;42.620;23.316;2022-08-21T09:12:19;9.73;;;4.53;;
10715;SDS011;5409;42.620;23.316;2022-08-21T09:14:52;7.88;;;4.20;;
10715;SDS011;5409;42.620;23.316;2022-08-21T09:17:27;8.52;;;4.20;;
10715;SDS011;5409;42.620;23.316;2022-08-21T09:20:03;11.50;;;4.45;;
10715;SDS011;5409;42.620;23.316;2022-08-21T09:22:34;9.23;;;4.38;;
10715;SDS011;5409;42.620;23.316;2022-08-21T09:25:08;8.32;;;4.00;;
10715;SDS011;5409;42.620;23.316;2022-08-21T09:27:36;10.35;;;4.50;;
10715;SDS011;5409;42.620;23.316;2022-08-21T09:30:03;9.85;;;4.03;;
10715;SDS011;5409;42.620;23.316;2022-08-21T09:32:31;9.98;;;4.15;;
10715;SDS011;5409;42.620;23.316;2022-08-21T09:34:59;6.70;;;3.53;;
10715;SDS011;5409;42.620;23.316;2022-08-21T09:37:27;11.02;;;4.03;;
10715;SDS011;5409;42.620;23.316;2022-08-21T09:39:55;8.13;;;3.90;;
10715;SDS011;5409;42.620;23.316;2022-08-21T09:42:23;7.03;;;4.20;;
10715;SDS011;5409;42.620;23.316;2022-08-21T09:45:00;7.78;;;3.90;;
10715;SDS011;5409;42.620;23.316;2022-08-21T09:47:30;6.82;;;4.10;;
10715;SDS011;5409;42.620;23.316;2022-08-21T09:50:06;8.65;;;4.22;;
10715;SDS011;5409;42.620;23.316;2022-08-21T09:52:34;5.72;;;4.45;;
10715;SDS011;5409;42.620;23.316;2022-08-21T09:55:01;7.60;;;4.35;;
10715;SDS011;5409;42.620;23.316;2022-08-21T09:57:48;12.23;;;3.75;;
10715;SDS011;5409;42.620;23.316;2022-08-21T10:00:15;9.60;;;4.38;;
10715;SDS011;5409;42.620;23.316;2022-08-21T10:02:44;9.25;;;4.22;;
10715;SDS011;5409;42.620;23.316;2022-08-21T10:05:15;5.75;;;5.07;;
10715;SDS011;5409;42.620;23.316;2022-08-21T10:07:44;7.72;;;4.30;;
10715;SDS011;5409;42.620;23.316;2022-08-21T10:10:14;7.38;;;4.47;;
10715;SDS011;5409;42.620;23.316;2022-08-21T10:12:44;12.18;;;4.82;;
10715;SDS011;5409;42.620;23.316;2022-08-21T10:15:13;9.63;;;4.97;;
10715;SDS011;5409;42.620;23.316;2022-08-21T10:17:44;9.82;;;4.53;;
10715;SDS011;5409;42.620;23.316;2022-08-21T10:20:14;9.63;;;4.80;;
10715;SDS011;5409;42.620;23.316;2022-08-21T10:22:45;6.60;;;4.70;;
10715;SDS011;5409;42.620;23.316;2022-08-21T10:25:14;9.05;;;4.63;;
10715;SDS011;5409;42.620;23.316;2022-08-21T10:27:47;7.93;;;4.70;;
10715;SDS011;5409;42.620;23.316;2022-08-21T10:30:18;8.45;;;4.55;;
10715;SDS011;5409;42.620;23.316;2022-08-21T10:35:28;6.70;;;4.45;;
10715;SDS011;5409;42.620;23.316;2022-08-21T10:38:06;8.05;;;5.35;;
10715;SDS011;5409;42.620;23.316;2022-08-21T10:40:37;9.40;;;5.22;;
10715;SDS011;5409;42.620;23.316;2022-08-21T10:43:09;7.10;;;4.28;;
10715;SDS011;5409;42.620;23.316;2022-08-21T10:45:43;7.15;;;4.38;;
10715;SDS011;5409;42.620;23.316;2022-08-21T10:48:14;7.75;;;4.32;;
10715;SDS011;5409;42.620;23.316;2022-08-21T10:50:43;6.53;;;3.95;;
10715;SDS011;5409;42.620;23.316;2022-08-21T10:53:16;4.82;;;3.95;;
10715;SDS011;5409;42.620;23.316;2022-08-21T10:55:47;8.05;;;4.28;;
10715;SDS011;5409;42.620;23.316;2022-08-21T10:58:18;5.65;;;3.78;;
10715;SDS011;5409;42.620;23.316;2022-08-21T11:00:46;8.90;;;4.30;;
10715;SDS011;5409;42.620;23.316;2022-08-21T11:03:13;4.90;;;3.78;;
10715;SDS011;5409;42.620;23.316;2022-08-21T11:05:41;7.38;;;3.50;;
10715;SDS011;5409;42.620;23.316;2022-08-21T11:08:09;7.43;;;3.63;;
10715;SDS011;5409;42.620;23.316;2022-08-21T11:10:38;4.63;;;3.53;;
10715;SDS011;5409;42.620;23.316;2022-08-21T11:13:08;5.55;;;3.88;;
10715;SDS011;5409;42.620;23.316;2022-08-21T11:15:38;5.53;;;3.97;;
10715;SDS011;5409;42.620;23.316;2022-08-21T11:18:14;5.28;;;3.17;;
10715;SDS011;5409;42.620;23.316;2022-08-21T11:20:43;4.22;;;3.10;;
10715;SDS011;5409;42.620;23.316;2022-08-21T11:23:13;5.78;;;3.30;;
10715;SDS011;5409;42.620;23.316;2022-08-21T11:25:42;8.38;;;3.55;;
10715;SDS011;5409;42.620;23.316;2022-08-21T11:28:13;5.15;;;3.50;;
10715;SDS011;5409;42.620;23.316;2022-08-21T11:30:45;6.65;;;3.30;;
10715;SDS011;5409;42.620;23.316;2022-08-21T11:33:18;11.13;;;3.55;;
10715;SDS011;5409;42.620;23.316;2022-08-21T11:35:47;8.50;;;3.25;;
10715;SDS011;5409;42.620;23.316;2022-08-21T11:38:22;4.18;;;3.17;;
10715;SDS011;5409;42.620;23.316;2022-08-21T11:41:02;6.82;;;3.50;;
10715;SDS011;5409;42.620;23.316;2022-08-21T11:43:33;7.90;;;3.38;;
10715;SDS011;5409;42.620;23.316;2022-08-21T11:48:48;6.82;;;3.50;;
10715;SDS011;5409;42.620;23.316;2022-08-21T11:51:19;7.07;;;3.33;;
10715;SDS011;5409;42.620;23.316;2022-08-21T11:53:47;8.50;;;3.75;;
10715;SDS011;5409;42.620;23.316;2022-08-21T11:56:19;4.35;;;3.40;;
10715;SDS011;5409;42.620;23.316;2022-08-21T11:58:48;7.00;;;3.63;;
10715;SDS011;5409;42.620;23.316;2022-08-21T12:01:16;7.20;;;3.90;;
10715;SDS011;5409;42.620;23.316;2022-08-21T12:03:50;10.95;;;3.78;;
10715;SDS011;5409;42.620;23.316;2022-08-21T12:06:27;4.03;;;3.63;;
10715;SDS011;5409;42.620;23.316;2022-08-21T12:08:57;4.63;;;3.38;;
10715;SDS011;5409;42.620;23.316;2022-08-21T12:11:25;7.07;;;3.60;;
10715;SDS011;5409;42.620;23.316;2022-08-21T12:13:53;7.53;;;3.97;;
10715;SDS011;5409;42.620;23.316;2022-08-21T12:16:28;6.90;;;3.80;;
10715;SDS011;5409;42.620;23.316;2022-08-21T12:19:02;6.78;;;3.75;;
10715;SDS011;5409;42.620;23.316;2022-08-21T12:21:28;5.05;;;3.47;;
10715;SDS011;5409;42.620;23.316;2022-08-21T12:24:00;5.47;;;3.88;;
10715;SDS011;5409;42.620;23.316;2022-08-21T12:26:31;7.93;;;4.03;;
10715;SDS011;5409;42.620;23.316;2022-08-21T12:29:10;6.85;;;4.15;;
10715;SDS011;5409;42.620;23.316;2022-08-21T12:31:46;9.77;;;3.80;;
10715;SDS011;5409;42.620;23.316;2022-08-21T12:34:13;6.10;;;3.95;;
10715;SDS011;5409;42.620;23.316;2022-08-21T12:36:42;7.65;;;4.53;;
10715;SDS011;5409;42.620;23.316;2022-08-21T12:39:13;6.72;;;4.75;;
10715;SDS011;5409;42.620;23.316;2022-08-21T12:41:45;6.55;;;4.45;;
10715;SDS011;5409;42.620;23.316;2022-08-21T12:44:13;9.98;;;4.38;;
10715;SDS011;5409;42.620;23.316;2022-08-21T12:46:43;5.97;;;4.00;;
10715;SDS011;5409;42.620;23.316;2022-08-21T12:49:12;8.50;;;4.57;;
10715;SDS011;5409;42.620;23.316;2022-08-21T12:51:45;11.63;;;4.35;;
10715;SDS011;5409;42.620;23.316;2022-08-21T12:54:21;8.25;;;3.38;;
10715;SDS011;5409;42.620;23.316;2022-08-21T12:56:56;5.85;;;3.55;;
10715;SDS011;5409;42.620;23.316;2022-08-21T12:59:23;5.93;;;3.97;;
10715;SDS011;5409;42.620;23.316;2022-08-21T13:01:50;7.68;;;3.75;;
10715;SDS011;5409;42.620;23.316;2022-08-21T13:04:18;5.93;;;4.13;;
10715;SDS011;5409;42.620;23.316;2022-08-21T13:06:46;6.45;;;4.15;;
10715;SDS011;5409;42.620;23.316;2022-08-21T13:09:14;5.35;;;3.60;;
10715;SDS011;5409;42.620;23.316;2022-08-21T13:11:42;6.13;;;3.75;;
10715;SDS011;5409;42.620;23.316;2022-08-21T13:14:13;6.03;;;4.10;;
10715;SDS011;5409;42.620;23.316;2022-08-21T13:16:40;9.55;;;3.75;;
10715;SDS011;5409;42.620;23.316;2022-08-21T13:19:07;6.00;;;3.65;;
10715;SDS011;5409;42.620;23.316;2022-08-21T13:21:34;7.20;;;3.85;;
10715;SDS011;5409;42.620;23.316;2022-08-21T13:24:12;5.75;;;3.95;;
10715;SDS011;5409;42.620;23.316;2022-08-21T13:26:40;7.55;;;3.95;;
10715;SDS011;5409;42.620;23.316;2022-08-21T13:29:07;7.38;;;3.70;;
10715;SDS011;5409;42.620;23.316;2022-08-21T13:31:37;8.05;;;3.50;;
10715;SDS011;5409;42.620;23.316;2022-08-21T13:34:04;6.30;;;3.80;;
10715;SDS011;5409;42.620;23.316;2022-08-21T13:36:34;6.40;;;3.53;;
10715;SDS011;5409;42.620;23.316;2022-08-21T13:39:02;6.82;;;4.15;;
10715;SDS011;5409;42.620;23.316;2022-08-21T13:41:29;6.18;;;3.30;;
10715;SDS011;5409;42.620;23.316;2022-08-21T13:43:57;7.97;;;3.30;;
10715;SDS011;5409;42.620;23.316;2022-08-21T13:46:24;5.95;;;3.10;;
10715;SDS011;5409;42.620;23.316;2022-08-21T13:48:54;8.63;;;3.85;;
10715;SDS011;5409;42.620;23.316;2022-08-21T13:51:21;4.90;;;3.08;;
10715;SDS011;5409;42.620;23.316;2022-08-21T13:53:48;6.80;;;3.47;;
10715;SDS011;5409;42.620;23.316;2022-08-21T13:56:23;5.05;;;3.40;;
10715;SDS011;5409;42.620;23.316;2022-08-21T13:58:50;4.50;;;3.72;;
10715;SDS011;5409;42.620;23.316;2022-08-21T14:01:18;4.97;;;3.70;;
10715;SDS011;5409;42.620;23.316;2022-08-21T14:03:45;7.10;;;3.42;;
10715;SDS011;5409;42.620;23.316;2022-08-21T14:06:16;7.50;;;4.30;;
10715;SDS011;5409;42.620;23.316;2022-08-21T14:08:46;5.75;;;4.00;;
10715;SDS011;5409;42.620;23.316;2022-08-21T14:11:14;7.00;;;4.03;;
10715;SDS011;5409;42.620;23.316;2022-08-21T14:13:42;7.97;;;3.88;;
10715;SDS011;5409;42.620;23.316;2022-08-21T14:16:14;8.88;;;3.75;;
10715;SDS011;5409;42.620;23.316;2022-08-21T14:18:45;6.22;;;3.50;;
10715;SDS011;5409;42.620;23.316;2022-08-21T14:21:11;11.27;;;4.22;;
10715;SDS011;5409;42.620;23.316;2022-08-21T14:23:39;11.55;;;3.85;;
10715;SDS011;5409;42.620;23.316;2022-08-21T14:26:07;8.73;;;3.75;;
10715;SDS011;5409;42.620;23.316;2022-08-21T14:28:37;5.15;;;4.05;;
10715;SDS011;5409;42.620;23.316;2022-08-21T14:31:11;9.70;;;4.15;;
10715;SDS011;5409;42.620;23.316;2022-08-21T14:33:38;5.82;;;3.95;;
10715;SDS011;5409;42.620;23.316;2022-08-21T14:36:05;13.68;;;5.65;;
10715;SDS011;5409;42.620;23.316;2022-08-21T14:38:31;7.22;;;3.70;;
10715;SDS011;5409;42.620;23.316;2022-08-21T14:41:04;9.57;;;5.18;;
10715;SDS011;5409;42.620;23.316;2022-08-21T14:43:34;6.07;;;4.22;;
10715;SDS011;5409;42.620;23.316;2022-08-21T14:46:01;7.30;;;4.82;;
10715;SDS011;5409;42.620;23.316;2022-08-21T14:48:27;8.50;;;4.28;;
10715;SDS011;5409;42.620;23.316;2022-08-21T14:50:54;6.57;;;4.35;;
10715;SDS011;5409;42.620;23.316;2022-08-21T14:53:20;11.05;;;4.60;;
10715;SDS011;5409;42.620;23.316;2022-08-21T14:55:47;9.45;;;4.50;;